Time;durP1;ratioP1;P1;durP2;ratioP2;P2;SDS_P1;SDS_P2;PMS_P1;PMS_P2;Temp;Humidity;BMP_temperature;BMP_pressure;BME280_temperature;BME280_humidity;BME280_pressure;Samples;Min_cycle;Max_cycle;Signal;HPM_P1;HPM_P2
2022/02/26 00:01:13;;;;;;;1.20;1.10;;;;;;;;;;4966598;28;20038;-69
2022/02/26 00:03:38;;;;;;;3.83;0.80;;;4.20;97.00;;;;;;4964123;28;20023;-69
2022/02/26 00:06:04;;;;;;;5.07;1.08;;;;;;;;;;4968704;28;20810;-68
2022/02/26 00:08:30;;;;;;;4.10;1.45;;;;;;;;;;4962513;28;20066;-69
2022/02/26 00:10:56;;;;;;;8.52;2.25;;;;;;;;;;4967264;28;20035;-69
2022/02/26 00:13:22;;;;;;;6.63;1.50;;;;;;;;;;4965315;28;20496;-70
2022/02/26 00:15:48;;;;;;;6.07;1.38;;;4.00;97.30;;;;;;4966022;28;20504;-69
2022/02/26 00:18:14;;;;;;;1.60;1.00;;;;;;;;;;4965431;28;20033;-69
2022/02/26 00:20:40;;;;;;;1.27;0.77;;;;;;;;;;4968000;28;20049;-69
2022/02/26 00:23:06;;;;;;;4.82;1.25;;;4.20;92.00;;;;;;4965578;28;20667;-69
2022/02/26 00:25:32;;;;;;;2.88;1.35;;;;;;;;;;4962523;28;20042;-69
2022/02/26 00:27:58;;;;;;;1.33;1.02;;;;;;;;;;4962884;28;20038;-69
2022/02/26 00:30:24;;;;;;;0.57;0.57;;;;;;;;;;4967613;28;20029;-69
2022/02/26 00:32:50;;;;;;;1.85;0.85;;;;;;;;;;4965339;28;20057;-69
2022/02/26 00:35:16;;;;;;;3.55;1.88;;;;;;;;;;4963394;28;20477;-69
2022/02/26 00:37:42;;;;;;;1.30;1.20;;;;;;;;;;4961861;28;20086;-69
2022/02/26 00:40:09;;;;;;;7.32;0.77;;;3.90;82.60;;;;;;4965032;28;20027;-68
2022/02/26 00:42:35;;;;;;;3.70;1.48;;;;;;;;;;4961408;28;20027;-69
2022/02/26 00:45:01;;;;;;;6.85;2.05;;;;;;;;;;4962790;28;20131;-70
2022/02/26 00:47:27;;;;;;;7.25;1.98;;;;;;;;;;4964362;28;20039;-69
2022/02/26 00:49:54;;;;;;;3.85;2.42;;;;;;;;;;4962898;28;20023;-69
2022/02/26 00:52:25;;;;;;;5.85;2.17;;;3.90;92.50;;;;;;4964226;28;20045;-69
2022/02/26 00:54:51;;;;;;;3.63;1.75;;;;;;;;;;4964525;28;20114;-70
2022/02/26 00:57:17;;;;;;;9.75;2.38;;;;;;;;;;4966286;28;20117;-69
2022/02/26 00:59:43;;;;;;;6.00;2.13;;;;;;;;;;4963530;28;20029;-69
2022/02/26 01:02:10;;;;;;;4.22;2.58;;;;;;;;;;4966126;28;20062;-69
2022/02/26 01:04:37;;;;;;;2.55;1.83;;;;;;;;;;4963074;28;20232;-69
2022/02/26 01:07:04;;;;;;;5.22;1.20;;;3.90;85.70;;;;;;4946081;29;20043;-69
2022/02/26 01:09:31;;;;;;;4.00;1.27;;;;;;;;;;4942563;28;20437;-68
2022/02/26 01:11:57;;;;;;;6.32;2.60;;;;;;;;;;4950195;29;20058;-69
2022/02/26 01:14:23;;;;;;;11.07;3.35;;;4.20;98.70;;;;;;4945671;29;20050;-70
2022/02/26 01:16:49;;;;;;;9.60;3.33;;;4.20;98.40;;;;;;4950637;28;20031;-69
2022/02/26 01:19:15;;;;;;;3.88;2.53;;;;;;;;;;4945175;28;20027;-69
2022/02/26 01:21:40;;;;;;;11.38;1.63;;;4.00;98.70;;;;;;4948898;29;20027;-69
2022/02/26 01:24:06;;;;;;;8.88;1.17;;;;;;;;;;4944959;29;20110;-68
2022/02/26 01:26:33;;;;;;;7.45;1.88;;;;;;;;;;4950578;29;20415;-69
2022/02/26 01:28:59;;;;;;;1.90;1.30;;;;;;;;;;4945793;29;20038;-69
2022/02/26 01:31:25;;;;;;;0.98;0.73;;;;;;;;;;4950586;28;20079;-70
2022/02/26 01:33:51;;;;;;;2.20;1.00;;;;;;;;;;4947277;29;20020;-69
2022/02/26 01:36:17;;;;;;;12.77;1.23;;;;;;;;;;4950593;29;20049;-69
2022/02/26 01:38:43;;;;;;;3.97;0.90;;;;;;;;;;4946948;29;20662;-69
2022/02/26 01:41:09;;;;;;;2.33;0.85;;;;;;;;;;4949594;29;20042;-69
2022/02/26 01:43:36;;;;;;;2.50;1.67;;;;;;;;;;4946155;29;20026;-69
2022/02/26 01:46:02;;;;;;;6.03;1.45;;;;;;;;;;4948872;29;20039;-69
2022/02/26 01:48:29;;;;;;;0.70;0.70;;;3.80;98.30;;;;;;4946129;29;20031;-69
2022/02/26 01:50:56;;;;;;;3.35;0.70;;;;;;;;;;4951041;28;20039;-69
2022/02/26 01:53:22;;;;;;;6.80;1.37;;;;;;;;;;4949072;29;20130;-70
2022/02/26 01:55:50;;;;;;;11.80;0.93;;;4.10;85.40;;;;;;4949723;29;20122;-69
2022/02/26 01:58:15;;;;;;;1.77;1.02;;;4.10;88.60;;;;;;4945688;28;20030;-69
2022/02/26 02:00:42;;;;;;;6.70;1.88;;;;;;;;;;4963879;28;20043;-69
2022/02/26 02:03:08;;;;;;;2.08;1.23;;;;;;;;;;4949696;29;20159;-69
2022/02/26 02:05:34;;;;;;;1.55;1.42;;;;;;;;;;4945759;29;20113;-69
2022/02/26 02:08:00;;;;;;;1.33;0.95;;;;;;;;;;4958480;28;20069;-69
2022/02/26 02:10:26;;;;;;;1.55;1.27;;;;;;;;;;4952248;28;20041;-69
2022/02/26 02:12:52;;;;;;;3.05;1.60;;;4.50;99.50;;;;;;4968021;28;20254;-69
2022/02/26 02:15:34;;;;;;;0.68;0.65;;;;;;;;;;4965288;28;20226;-70
2022/02/26 02:18:01;;;;;;;5.78;1.33;;;;;;;;;;4965511;28;20118;-70
2022/02/26 02:20:27;;;;;;;2.53;1.20;;;;;;;;;;4967636;28;20035;-69
2022/02/26 02:22:52;;;;;;;3.35;2.70;;;4.40;98.70;;;;;;4966554;28;20038;-68
2022/02/26 02:25:18;;;;;;;9.25;4.30;;;;;;;;;;4964499;28;20078;-69
2022/02/26 02:27:44;;;;;;;13.05;2.50;;;;;;;;;;4966522;28;20126;-70
2022/02/26 02:30:11;;;;;;;4.80;1.63;;;;;;;;;;4969012;28;20050;-70
2022/02/26 02:32:37;;;;;;;1.35;1.25;;;4.10;88.20;;;;;;4969408;28;20121;-69
2022/02/26 02:35:04;;;;;;;12.23;1.17;;;;;;;;;;4965057;28;20595;-70
2022/02/26 02:37:30;;;;;;;2.00;1.23;;;;;;;;;;4967166;28;20038;-69
2022/02/26 02:39:56;;;;;;;7.13;1.13;;;;;;;;;;4964993;28;20069;-69
2022/02/26 02:42:22;;;;;;;1.17;0.68;;;;;;;;;;4964114;28;20058;-69
2022/02/26 02:44:48;;;;;;;2.00;0.90;;;;;;;;;;4965871;28;20086;-69
2022/02/26 02:47:14;;;;;;;4.07;0.93;;;;;;;;;;4964377;28;20118;-70
2022/02/26 02:49:39;;;;;;;0.80;0.68;;;4.40;93.90;;;;;;4962894;28;20031;-69
2022/02/26 02:52:05;;;;;;;0.50;0.50;;;;;;;;;;4967012;28;20062;-69
2022/02/26 02:54:31;;;;;;;0.88;0.77;;;;;;;;;;4965267;28;20035;-69
2022/02/26 02:56:57;;;;;;;4.75;0.95;;;;;;;;;;4968857;28;20054;-69
2022/02/26 02:59:24;;;;;;;1.30;1.20;;;;;;;;;;4963081;28;20097;-69
2022/02/26 03:01:51;;;;;;;0.85;0.63;;;;;;;;;;4966893;28;20062;-69
2022/02/26 03:04:17;;;;;;;6.43;0.90;;;;;;;;;;4965543;28;20026;-69
2022/02/26 03:06:43;;;;;;;3.28;1.95;;;;;;;;;;4967341;28;20031;-69
2022/02/26 03:09:09;;;;;;;4.70;0.85;;;;;;;;;;4965402;28;20464;-68
2022/02/26 03:11:35;;;;;;;1.63;0.60;;;;;;;;;;4948828;28;20093;-69
2022/02/26 03:14:00;;;;;;;0.77;0.77;;;4.50;99.90;;;;;;4964872;28;20838;-69
2022/02/26 03:16:26;;;;;;;1.33;1.00;;;;;;;;;;4966539;28;20127;-69
2022/02/26 03:18:52;;;;;;;1.10;0.80;;;;;;;;;;4962496;28;20038;-69
2022/02/26 03:21:18;;;;;;;1.67;1.60;;;;;;;;;;4968873;28;20062;-69
2022/02/26 03:23:44;;;;;;;14.25;1.92;;;;;;;;;;4963784;28;20073;-70
2022/02/26 03:26:10;;;;;;;15.57;0.93;;;;;;;;;;4967716;28;20049;-69
2022/02/26 03:28:36;;;;;;;1.08;1.02;;;;;;;;;;4961882;28;20419;-70
2022/02/26 03:31:02;;;;;;;2.17;1.05;;;4.30;99.90;;;;;;4968354;28;20031;-68
2022/02/26 03:33:28;;;;;;;0.65;0.65;;;;;;;;;;4965052;28;20034;-70
2022/02/26 03:35:54;;;;;;;5.07;1.15;;;;;;;;;;4967198;28;20085;-69
2022/02/26 03:38:20;;;;;;;7.45;2.50;;;;;;;;;;4961700;28;20353;-69
2022/02/26 03:40:46;;;;;;;8.75;1.45;;;;;;;;;;4967976;28;20443;-68
2022/02/26 03:43:12;;;;;;;5.07;1.95;;;;;;;;;;4965667;28;20106;-69
2022/02/26 03:45:37;;;;;;;2.83;0.63;;;4.60;97.20;;;;;;4963020;28;20042;-68
2022/02/26 03:48:04;;;;;;;1.90;1.20;;;;;;;;;;4963917;28;20035;-69
2022/02/26 03:50:30;;;;;;;1.20;0.93;;;;;;;;;;4966760;28;20883;-68
2022/02/26 03:52:56;;;;;;;1.13;1.13;;;;;;;;;;4966836;28;20034;-70
2022/02/26 03:55:22;;;;;;;0.82;0.80;;;;;;;;;;4963526;28;20488;-69
2022/02/26 03:57:48;;;;;;;1.35;0.82;;;;;;;;;;4963692;28;20043;-70
2022/02/26 04:00:14;;;;;;;7.30;1.60;;;;;;;;;;4967036;28;20034;-70
2022/02/26 04:02:40;;;;;;;0.93;0.70;;;;;;;;;;4965839;28;20043;-70
2022/02/26 04:05:06;;;;;;;1.67;0.82;;;;;;;;;;4963799;28;20491;-69
2022/02/26 04:07:32;;;;;;;12.45;1.08;;;;;;;;;;4966763;28;20051;-69
2022/02/26 04:09:58;;;;;;;1.00;0.95;;;;;;;;;;4962030;28;20085;-69
2022/02/26 04:12:24;;;;;;;2.92;1.27;;;4.50;99.60;;;;;;4966937;28;20038;-69
2022/02/26 04:14:50;;;;;;;15.23;1.48;;;;;;;;;;4964495;28;20038;-70
2022/02/26 04:17:16;;;;;;;0.63;0.63;;;;;;;;;;4966254;28;20047;-69
2022/02/26 04:19:42;;;;;;;2.25;1.02;;;;;;;;;;4962280;28;20408;-69
2022/02/26 04:22:08;;;;;;;2.33;0.87;;;4.50;99.90;;;;;;4966051;28;20586;-68
2022/02/26 04:24:34;;;;;;;0.60;0.60;;;;;;;;;;4963011;28;20035;-69
2022/02/26 04:27:00;;;;;;;0.98;0.88;;;;;;;;;;4966601;28;20023;-69
2022/02/26 04:29:25;;;;;;;6.20;1.10;;;4.70;95.90;;;;;;4961170;28;20039;-68
2022/02/26 04:31:51;;;;;;;2.83;1.17;;;;;;;;;;4966254;28;20023;-70
2022/02/26 04:34:17;;;;;;;1.00;0.90;;;;;;;;;;4962595;28;20057;-69
2022/02/26 04:36:43;;;;;;;2.20;1.13;;;;;;;;;;4967889;28;20085;-69
2022/02/26 04:39:10;;;;;;;1.15;0.57;;;;;;;;;;4963437;28;20045;-69
2022/02/26 04:41:35;;;;;;;0.80;0.77;;;;;;;;;;4962971;28;21581;-69
2022/02/26 04:44:02;;;;;;;0.73;0.73;;;;;;;;;;4958222;28;20629;-69
2022/02/26 04:46:28;;;;;;;1.00;0.90;;;;;;;;;;4969638;28;20038;-69
2022/02/26 04:48:54;;;;;;;1.50;1.20;;;4.40;95.90;;;;;;4965363;28;20096;-69
2022/02/26 04:51:20;;;;;;;2.83;0.80;;;;;;;;;;4970960;28;20069;-69
2022/02/26 04:53:46;;;;;;;0.75;0.75;;;;;;;;;;4966243;28;20023;-69
2022/02/26 04:56:12;;;;;;;0.75;0.75;;;;;;;;;;4969888;28;20031;-69
2022/02/26 04:58:38;;;;;;;0.55;0.55;;;4.10;99.50;;;;;;4966218;28;20030;-68
2022/02/26 05:01:05;;;;;;;1.70;1.02;;;;;;;;;;4968337;28;20035;-69
2022/02/26 05:03:31;;;;;;;0.95;0.95;;;;;;;;;;4969074;28;20036;-70
2022/02/26 05:05:57;;;;;;;2.67;0.93;;;;;;;;;;4969800;28;20035;-69
2022/02/26 05:08:23;;;;;;;1.95;1.13;;;;;;;;;;4967481;28;20471;-67
2022/02/26 05:10:49;;;;;;;2.60;0.80;;;;;;;;;;4969404;28;20051;-68
2022/02/26 05:13:15;;;;;;;1.00;0.95;;;;;;;;;;4966803;28;20038;-69
2022/02/26 05:15:41;;;;;;;3.42;0.90;;;;;;;;;;4966878;28;20096;-69
2022/02/26 05:18:08;;;;;;;1.77;1.65;;;;;;;;;;4968231;28;20043;-69
2022/02/26 05:20:34;;;;;;;7.40;1.10;;;;;;;;;;4968251;28;20062;-68
2022/02/26 05:23:00;;;;;;;1.63;0.93;;;;;;;;;;4969410;28;20038;-69
2022/02/26 05:25:26;;;;;;;0.73;0.73;;;;;;;;;;4966634;28;20030;-69
2022/02/26 05:27:52;;;;;;;3.00;0.70;;;3.40;95.00;;;;;;4966895;28;20030;-70
2022/02/26 05:30:18;;;;;;;9.95;1.58;;;;;;;;;;4969549;28;20031;-69
2022/02/26 05:32:44;;;;;;;4.22;1.55;;;;;;;;;;4970505;28;20034;-69
2022/02/26 05:35:11;;;;;;;1.48;1.40;;;;;;;;;;4967052;28;20023;-69
2022/02/26 05:37:37;;;;;;;1.20;0.98;;;;;;;;;;4968511;28;20049;-70
2022/02/26 05:40:04;;;;;;;1.15;1.05;;;3.00;92.10;;;;;;4965231;28;20023;-68
2022/02/26 05:42:30;;;;;;;;;;;;;;;;;;4951787;28;20386;-69
2022/02/26 05:44:56;;;;;;;1.98;1.70;;;;;;;;;;4966692;28;19917;-69
2022/02/26 05:47:22;;;;;;;5.65;2.55;;;;;;;;;;4967368;28;20038;-69
2022/02/26 05:49:48;;;;;;;7.05;3.38;;;;;;;;;;4964575;28;20030;-69
2022/02/26 05:52:14;;;;;;;7.72;3.25;;;;;;;;;;4968164;28;20073;-69
2022/02/26 05:54:40;;;;;;;2.65;1.88;;;2.40;99.90;;;;;;4958908;28;20027;-69
2022/02/26 05:57:09;;;;;;;5.45;1.55;;;;;;;;;;4969152;28;20762;-69
2022/02/26 05:59:35;;;;;;;1.27;1.08;;;;;;;;;;4966207;28;20207;-69
2022/02/26 06:02:01;;;;;;;0.68;0.68;;;;;;;;;;4967652;28;20087;-68
2022/02/26 06:04:27;;;;;;;1.17;0.93;;;;;;;;;;4966660;28;20480;-68
2022/02/26 06:06:53;;;;;;;5.07;1.35;;;;;;;;;;4969589;28;20039;-69
2022/02/26 06:09:19;;;;;;;2.03;1.42;;;;;;;;;;4965390;28;20114;-69
2022/02/26 06:11:45;;;;;;;8.32;1.23;;;;;;;;;;4967307;28;20023;-69
2022/02/26 06:14:11;;;;;;;1.08;0.85;;;;;;;;;;4963896;28;20034;-69
2022/02/26 06:16:37;;;;;;;7.43;1.25;;;;;;;;;;4968216;28;20043;-69
2022/02/26 06:19:03;;;;;;;3.08;1.17;;;;;;;;;;4965651;28;20026;-69
2022/02/26 06:21:30;;;;;;;1.75;0.88;;;;;;;;;;4967902;28;20023;-69
2022/02/26 06:23:56;;;;;;;0.90;0.85;;;;;;;;;;4965883;28;20031;-68
2022/02/26 06:26:22;;;;;;;1.67;1.08;;;;;;;;;;4952522;28;20054;-69
2022/02/26 06:28:48;;;;;;;5.63;1.70;;;;;;;;;;4964733;28;20513;-69
2022/02/26 06:31:14;;;;;;;0.70;0.70;;;;;;;;;;4964909;28;20035;-69
2022/02/26 06:33:40;;;;;;;7.38;1.52;;;;;;;;;;4964419;28;20027;-70
2022/02/26 06:36:06;;;;;;;2.20;1.35;;;;;;;;;;4969118;28;20049;-70
2022/02/26 06:38:32;;;;;;;4.88;2.88;;;;;;;;;;4946196;28;20122;-70
2022/02/26 06:40:58;;;;;;;3.17;2.72;;;2.30;99.90;;;;;;4966025;28;20467;-69
2022/02/26 06:43:24;;;;;;;2.38;2.20;;;;;;;;;;4965476;28;20039;-70
2022/02/26 06:45:50;;;;;;;6.00;1.25;;;;;;;;;;4963203;28;20026;-70
2022/02/26 06:48:16;;;;;;;1.20;1.10;;;;;;;;;;4963767;28;20035;-69
2022/02/26 06:50:42;;;;;;;5.70;1.02;;;;;;;;;;4962212;28;20527;-69
2022/02/26 06:53:07;;;;;;;3.53;1.95;;;2.70;99.50;;;;;;4963780;28;20018;-72
2022/02/26 06:55:33;;;;;;;0.90;0.85;;;;;;;;;;4963767;28;20041;-72
2022/02/26 06:57:59;;;;;;;3.20;1.75;;;;;;;;;;4963304;28;20062;-73
2022/02/26 07:00:29;;;;;;;4.07;2.28;;;;;;;;;;4966563;28;20122;-74
2022/02/26 07:02:55;;;;;;;3.60;2.15;;;;;;;;;;4963908;28;20039;-70
2022/02/26 07:05:20;;;;;;;2.00;1.52;;;3.10;99.70;;;;;;4962004;28;20500;-70
2022/02/26 07:07:46;;;;;;;8.80;3.15;;;;;;;;;;4961499;28;20130;-71
2022/02/26 07:10:12;;;;;;;9.30;1.15;;;;;;;;;;4947586;28;20041;-71
2022/02/26 07:12:38;;;;;;;2.17;1.98;;;3.30;91.50;;;;;;4965193;28;20538;-71
2022/02/26 07:15:05;;;;;;;3.92;2.42;;;;;;;;;;4962188;28;20011;-71
2022/02/26 07:17:31;;;;;;;4.28;2.03;;;;;;;;;;4965121;28;20142;-71
2022/02/26 07:19:57;;;;;;;6.80;1.80;;;;;;;;;;4964246;28;20022;-71
2022/02/26 07:22:24;;;;;;;6.80;2.35;;;;;;;;;;4965919;28;20105;-71
2022/02/26 07:24:50;;;;;;;2.47;2.17;;;;;;;;;;4963559;28;20038;-71
2022/02/26 07:27:17;;;;;;;2.85;1.45;;;;;;;;;;4965729;28;20274;-70
2022/02/26 07:29:44;;;;;;;2.10;1.45;;;;;;;;;;4961210;28;20034;-71
2022/02/26 07:32:09;;;;;;;1.83;1.17;;;3.70;98.20;;;;;;4962276;28;20035;-70
2022/02/26 07:34:35;;;;;;;1.27;0.90;;;;;;;;;;4960946;28;20027;-69
2022/02/26 07:37:02;;;;;;;5.43;1.52;;;;;;;;;;4962376;28;20423;-70
2022/02/26 07:39:28;;;;;;;3.05;1.38;;;;;;;;;;4961511;28;20027;-71
2022/02/26 07:41:54;;;;;;;5.78;1.35;;;;;;;;;;4963566;28;20101;-71
2022/02/26 07:44:20;;;;;;;1.25;1.13;;;;;;;;;;4962594;28;20086;-71
2022/02/26 07:46:46;;;;;;;1.10;1.08;;;;;;;;;;4962965;28;20033;-71
2022/02/26 07:49:12;;;;;;;1.88;0.80;;;;;;;;;;4959051;28;20495;-71
2022/02/26 07:51:38;;;;;;;2.30;0.50;;;;;;;;;;4964833;28;20030;-71
2022/02/26 07:54:04;;;;;;;3.63;0.95;;;;;;;;;;4955517;28;20023;-71
2022/02/26 07:56:30;;;;;;;1.48;1.25;;;;;;;;;;4964066;28;20097;-70
2022/02/26 07:58:56;;;;;;;1.50;1.20;;;;;;;;;;4961036;28;20031;-73
2022/02/26 08:01:22;;;;;;;1.50;1.40;;;;;;;;;;4961783;28;20181;-74
2022/02/26 08:03:49;;;;;;;2.20;1.25;;;;;;;;;;4960986;28;20031;-73
2022/02/26 08:06:15;;;;;;;3.95;1.20;;;;;;;;;;4965774;28;20706;-74
2022/02/26 08:08:41;;;;;;;11.18;1.95;;;;;;;;;;4958527;28;20045;-74
2022/02/26 08:11:07;;;;;;;4.45;1.75;;;;;;;;;;4962312;28;20050;-73
2022/02/26 08:13:33;;;;;;;4.38;0.82;;;;;;;;;;4959448;28;20027;-74
2022/02/26 08:15:59;;;;;;;3.15;0.85;;;;;;;;;;4958725;28;20031;-74
2022/02/26 08:18:25;;;;;;;3.97;1.45;;;;;;;;;;4959092;28;20088;-74
2022/02/26 08:20:50;;;;;;;2.70;0.88;;;18.70;58.30;;;;;;4960106;28;20031;-71
2022/02/26 08:23:17;;;;;;;7.25;3.28;;;;;;;;;;4962062;28;20035;-71
2022/02/26 08:25:43;;;;;;;3.95;1.27;;;;;;;;;;4960810;28;20027;-71
2022/02/26 08:28:09;;;;;;;6.00;2.10;;;19.80;41.30;;;;;;4961709;28;20050;-72
2022/02/26 08:30:35;;;;;;;2.72;0.60;;;;;;;;;;4963588;28;20038;-71
2022/02/26 08:33:01;;;;;;;4.50;1.07;;;;;;;;;;4966637;28;20467;-75
2022/02/26 08:35:27;;;;;;;8.60;3.30;;;;;;;;;;4961609;28;20841;-71
2022/02/26 08:37:53;;;;;;;6.25;2.08;;;;;;;;;;4963596;28;20061;-78
2022/02/26 08:40:19;;;;;;;11.98;3.58;;;;;;;;;;4963873;28;20023;-71
2022/02/26 08:42:45;;;;;;;5.67;0.93;;;;;;;;;;4965392;28;20116;-75
2022/02/26 08:45:12;;;;;;;3.33;1.27;;;;;;;;;;4961236;28;20035;-78
2022/02/26 08:47:38;;;;;;;3.65;0.80;;;;;;;;;;4962507;28;20101;-73
2022/02/26 08:50:05;;;;;;;4.35;0.90;;;;;;;;;;4959569;28;20045;-72
2022/02/26 08:52:31;;;;;;;1.70;0.65;;;;;;;;;;4965125;28;20027;-72
2022/02/26 08:54:57;;;;;;;5.78;1.83;;;;;;;;;;4961298;28;20196;-72
2022/02/26 08:57:23;;;;;;;7.07;1.13;;;;;;;;;;4964821;28;20043;-72
2022/02/26 08:59:49;;;;;;;6.15;0.60;;;22.90;28.70;;;;;;4960013;28;20023;-72
2022/02/26 09:02:15;;;;;;;2.42;0.68;;;23.00;28.90;;;;;;4961303;28;20518;-72
2022/02/26 09:04:41;;;;;;;2.95;1.27;;;;;;;;;;4959997;28;20153;-72
2022/02/26 09:07:07;;;;;;;2.30;0.65;;;;;;;;;;4964007;28;20043;-71
2022/02/26 09:09:33;;;;;;;7.97;1.40;;;;;;;;;;4960602;28;20074;-72
2022/02/26 09:12:00;;;;;;;3.40;1.25;;;;;;;;;;4959465;28;20023;-72
2022/02/26 09:14:25;;;;;;;3.30;1.40;;;22.70;43.40;;;;;;4958359;28;20031;-71
2022/02/26 09:16:51;;;;;;;5.93;1.20;;;;;;;;;;4964789;28;20530;-74
2022/02/26 09:19:17;;;;;;;2.35;0.65;;;;;;;;;;4961906;28;20023;-72
2022/02/26 09:21:43;;;;;;;1.60;0.90;;;;;;;;;;4962686;28;20046;-71
2022/02/26 09:24:09;;;;;;;2.55;1.50;;;;;;;;;;4960619;28;20023;-71
2022/02/26 09:26:35;;;;;;;4.38;0.93;;;22.40;32.40;;;;;;4962964;28;20077;-70
2022/02/26 09:29:01;;;;;;;5.28;0.98;;;;;;;;;;4960171;28;20030;-71
2022/02/26 09:31:27;;;;;;;1.90;0.60;;;;;;;;;;4964992;28;20166;-72
2022/02/26 09:33:53;;;;;;;1.13;1.02;;;;;;;;;;4965857;28;20085;-81
2022/02/26 09:36:19;;;;;;;1.27;0.77;;;;;;;;;;4968083;28;20055;-78
2022/02/26 09:38:46;;;;;;;2.47;1.02;;;;;;;;;;4964864;28;20019;-73
2022/02/26 09:41:12;;;;;;;2.47;0.85;;;;;;;;;;4967957;28;20046;-76
2022/02/26 09:43:39;;;;;;;2.70;1.00;;;;;;;;;;4964318;28;20042;-74
2022/02/26 09:46:06;;;;;;;3.50;0.90;;;;;;;;;;4967975;28;20275;-73
2022/02/26 09:48:32;;;;;;;3.97;1.02;;;;;;;;;;4965471;28;21800;-75
2022/02/26 09:50:58;;;;;;;1.75;0.80;;;;;;;;;;4969167;28;20034;-73
2022/02/26 09:53:24;;;;;;;3.55;1.15;;;;;;;;;;4964839;28;20042;-74
2022/02/26 09:55:54;;;;;;;8.95;1.77;;;;;;;;;;4965398;28;20808;-74
2022/02/26 09:58:20;;;;;;;6.28;1.90;;;;;;;;;;4964391;28;20043;-74
2022/02/26 10:00:47;;;;;;;6.90;1.20;;;;;;;;;;4968255;28;20027;-75
2022/02/26 10:03:25;;;;;;;4.65;0.95;;;;;;;;;;4969198;28;20475;-74
2022/02/26 10:06:03;;;;;;;1.95;1.20;;;22.00;28.40;;;;;;4965683;28;20039;-72
2022/02/26 10:08:35;;;;;;;4.90;0.98;;;;;;;;;;4964770;28;20046;-71
2022/02/26 10:11:01;;;;;;;3.17;1.45;;;;;;;;;;4965467;28;20034;-71
2022/02/26 10:13:27;;;;;;;3.03;0.80;;;;;;;;;;4960994;28;20085;-72
2022/02/26 10:15:53;;;;;;;3.13;1.35;;;;;;;;;;4958995;28;20038;-71
2022/02/26 10:18:19;;;;;;;6.47;1.27;;;;;;;;;;4961426;28;20138;-72
2022/02/26 10:20:46;;;;;;;13.77;1.87;;;;;;;;;;4964605;28;20065;-74
2022/02/26 10:23:14;;;;;;;4.25;2.70;;;;;;;;;;4965618;28;20057;-72
2022/02/26 10:25:40;;;;;;;3.10;2.00;;;;;;;;;;4961069;28;20039;-69
2022/02/26 10:28:06;;;;;;;6.88;1.67;;;;;;;;;;4962665;28;20041;-69
2022/02/26 10:30:36;;;;;;;3.83;1.95;;;19.00;35.20;;;;;;4964131;28;20039;-68
2022/02/26 10:33:10;;;;;;;10.02;2.40;;;19.10;34.50;;;;;;4968093;28;20035;-69
2022/02/26 10:35:54;;;;;;;5.35;1.52;;;;;;;;;;4962325;28;20783;-69
2022/02/26 10:38:20;;;;;;;5.47;2.25;;;;;;;;;;4957382;28;20039;-74
2022/02/26 10:40:52;;;;;;;5.57;2.35;;;;;;;;;;4967210;28;20019;-74
2022/02/26 10:43:37;;;;;;;5.15;2.45;;;;;;;;;;4965130;28;20089;-74
2022/02/26 10:46:14;;;;;;;5.30;1.70;;;;;;;;;;4965785;28;20030;-74
2022/02/26 10:48:40;;;;;;;10.63;2.33;;;;;;;;;;4963299;28;20035;-75
2022/02/26 10:51:13;;;;;;;2.40;1.35;;;;;;;;;;4966771;28;20030;-75
2022/02/26 10:53:42;;;;;;;4.90;2.63;;;;;;;;;;4961659;28;20034;-76
2022/02/26 10:56:10;;;;;;;4.05;2.05;;;;;;;;;;4950325;28;20050;-73
2022/02/26 10:58:35;;;;;;;;;;;;;;;;;;4961555;28;20116;-73
2022/02/26 11:01:03;;;;;;;9.50;1.45;;;;;;;;;;4964796;28;20400;-73
2022/02/26 11:03:29;;;;;;;2.15;1.38;;;;;;;;;;4964908;28;20407;-83
2022/02/26 11:05:55;;;;;;;3.95;1.98;;;;;;;;;;4966553;28;20034;-75
2022/02/26 11:08:22;;;;;;;4.80;1.58;;;;;;;;;;4961943;28;20051;-75
2022/02/26 11:10:50;;;;;;;2.08;1.35;;;;;;;;;;4963918;28;20033;-76
2022/02/26 11:13:19;;;;;;;2.65;1.73;;;20.10;33.30;;;;;;4963600;28;20031;-75
2022/02/26 11:15:45;;;;;;;9.00;3.25;;;;;;;;;;4963632;28;20041;-77
2022/02/26 11:18:13;;;;;;;4.97;1.50;;;;;;;;;;4965357;28;20113;-76
2022/02/26 11:20:39;;;;;;;1.90;1.10;;;;;;;;;;4964811;28;20019;-76
2022/02/26 11:23:05;;;;;;;7.82;1.75;;;;;;;;;;4965439;28;20432;-75
2022/02/26 11:25:31;;;;;;;3.20;1.35;;;;;;;;;;4963772;28;20062;-77
2022/02/26 11:27:57;;;;;;;4.35;1.83;;;;;;;;;;4964648;28;20046;-76
2022/02/26 11:30:30;;;;;;;3.17;1.70;;;;;;;;;;4964713;28;20023;-76
2022/02/26 11:32:56;;;;;;;3.40;1.25;;;;;;;;;;4965686;28;20023;-76
2022/02/26 11:35:26;;;;;;;5.00;2.08;;;;;;;;;;4962324;28;20483;-75
2022/02/26 11:38:05;;;;;;;2.30;1.77;;;;;;;;;;4961798;28;20050;-75
2022/02/26 11:40:31;;;;;;;2.75;1.15;;;;;;;;;;4962338;28;20038;-75
2022/02/26 11:42:58;;;;;;;4.90;1.23;;;;;;;;;;4963647;28;20470;-75
2022/02/26 11:45:27;;;;;;;4.63;1.47;;;;;;;;;;4961917;28;20123;-76
2022/02/26 11:47:53;;;;;;;1.38;0.85;;;;;;;;;;4964355;28;20503;-76
2022/02/26 11:50:31;;;;;;;2.75;1.50;;;;;;;;;;4961624;28;20077;-74
2022/02/26 11:52:57;;;;;;;6.97;1.95;;;;;;;;;;4965803;28;20129;-75
2022/02/26 11:55:34;;;;;;;3.35;1.30;;;;;;;;;;4960824;28;20030;-75
2022/02/26 11:58:02;;;;;;;3.42;0.85;;;;;;;;;;4957986;28;20030;-76
2022/02/26 12:00:30;;;;;;;3.63;0.98;;;;;;;;;;4963224;28;20045;-76
2022/02/26 12:03:15;;;;;;;0.75;0.43;;;;;;;;;;4964101;28;20038;-76
2022/02/26 12:05:41;;;;;;;4.30;1.05;;;;;;;;;;4939571;28;20069;-75
2022/02/26 12:08:09;;;;;;;1.58;0.75;;;18.60;31.80;;;;;;4965487;28;20043;-76
2022/02/26 12:10:35;;;;;;;0.77;0.77;;;;;;;;;;4951898;28;20101;-76
2022/02/26 12:13:01;;;;;;;4.55;1.38;;;;;;;;;;4965789;28;20653;-76
2022/02/26 12:15:32;;;;;;;1.45;1.25;;;;;;;;;;4962149;28;20042;-72
2022/02/26 12:18:12;;;;;;;0.90;0.70;;;;;;;;;;4963099;28;20419;-71
2022/02/26 12:20:39;;;;;;;3.78;1.35;;;;;;;;;;4963751;28;20031;-71
2022/02/26 12:23:13;;;;;;;0.68;0.63;;;17.40;30.40;;;;;;4966320;28;20031;-71
2022/02/26 12:25:40;;;;;;;3.40;0.63;;;17.40;30.90;;;;;;4961929;28;20043;-72
2022/02/26 12:28:10;;;;;;;2.78;0.88;;;;;;;;;;4964088;28;20031;-72
2022/02/26 12:30:52;;;;;;;1.42;0.80;;;;;;;;;;4945679;28;20489;-71
2022/02/26 12:33:19;;;;;;;2.08;0.73;;;;;;;;;;4964284;28;20027;-71
2022/02/26 12:35:45;;;;;;;0.90;0.60;;;;;;;;;;4962861;28;20110;-71
2022/02/26 12:38:32;;;;;;;4.57;1.00;;;;;;;;;;4962664;28;20042;-71
2022/02/26 12:40:58;;;;;;;1.42;1.02;;;;;;;;;;4964685;28;20031;-72
2022/02/26 12:43:28;;;;;;;0.85;0.60;;;;;;;;;;4965306;28;20748;-72
2022/02/26 12:45:55;;;;;;;4.30;0.90;;;;;;;;;;4963675;28;20034;-72
2022/02/26 12:48:21;;;;;;;0.57;0.57;;;;;;;;;;4963036;28;20031;-71
2022/02/26 12:50:47;;;;;;;1.00;0.93;;;;;;;;;;4964917;28;20268;-72
2022/02/26 12:53:13;;;;;;;0.95;0.68;;;;;;;;;;4966014;28;20031;-71
2022/02/26 12:55:39;;;;;;;15.52;1.92;;;;;;;;;;4962271;28;20078;-71
2022/02/26 12:58:06;;;;;;;1.05;1.00;;;;;;;;;;4963623;28;20045;-72
2022/02/26 13:00:34;;;;;;;1.25;0.98;;;;;;;;;;4944932;28;20113;-71
2022/02/26 13:03:02;;;;;;;1.88;1.45;;;;;;;;;;4967195;28;20029;-72
2022/02/26 13:05:29;;;;;;;3.33;1.02;;;;;;;;;;4961661;28;20031;-71
2022/02/26 13:07:57;;;;;;;1.02;0.95;;;;;;;;;;4965123;28;20047;-72
2022/02/26 13:10:28;;;;;;;4.13;2.45;;;;;;;;;;4967995;28;20041;-71
2022/02/26 13:12:54;;;;;;;2.25;1.42;;;;;;;;;;4965966;28;20034;-71
2022/02/26 13:15:20;;;;;;;3.10;1.17;;;;;;;;;;4963565;28;20019;-72
2022/02/26 13:17:49;;;;;;;1.58;1.13;;;;;;;;;;4966950;28;20567;-71
2022/02/26 13:20:24;;;;;;;1.58;1.00;;;14.00;38.10;;;;;;4967614;28;20033;-71
2022/02/26 13:22:51;;;;;;;1.10;1.00;;;;;;;;;;4967948;28;20058;-71
2022/02/26 13:25:18;;;;;;;1.33;1.17;;;;;;;;;;4966662;28;20515;-71
2022/02/26 13:27:48;;;;;;;1.45;0.93;;;;;;;;;;4965888;28;20027;-72
2022/02/26 13:30:15;;;;;;;3.30;0.93;;;;;;;;;;4966629;28;20038;-71
2022/02/26 13:32:42;;;;;;;0.90;0.90;;;;;;;;;;4967831;28;20027;-72
2022/02/26 13:35:08;;;;;;;7.07;1.45;;;;;;;;;;4966645;28;20290;-71
2022/02/26 13:37:36;;;;;;;3.63;1.50;;;;;;;;;;4967336;28;20058;-71
2022/02/26 13:40:03;;;;;;;2.35;1.25;;;;;;;;;;4966060;28;20757;-71
2022/02/26 13:42:30;;;;;;;4.10;1.42;;;;;;;;;;4964599;28;20038;-71
2022/02/26 13:45:05;;;;;;;1.27;1.15;;;;;;;;;;4965263;28;20037;-71
2022/02/26 13:47:32;;;;;;;1.15;0.95;;;;;;;;;;4964720;28;20030;-71
2022/02/26 13:49:59;;;;;;;1.23;1.00;;;;;;;;;;4942899;29;20408;-70
2022/02/26 13:52:26;;;;;;;1.05;0.98;;;;;;;;;;4963515;28;20121;-71
2022/02/26 13:54:53;;;;;;;2.13;1.10;;;;;;;;;;4966178;28;20066;-71
2022/02/26 13:57:23;;;;;;;2.42;1.33;;;;;;;;;;4967688;28;20027;-71
2022/02/26 13:59:50;;;;;;;6.00;0.93;;;;;;;;;;4965004;28;20567;-72
2022/02/26 14:02:23;;;;;;;3.73;2.17;;;;;;;;;;4968759;28;20022;-71
2022/02/26 14:04:49;;;;;;;1.63;0.98;;;;;;;;;;4964685;28;20077;-71
2022/02/26 14:07:15;;;;;;;3.95;2.25;;;;;;;;;;4968278;28;20503;-72
2022/02/26 14:09:42;;;;;;;2.08;1.30;;;;;;;;;;4963990;28;20190;-71
2022/02/26 14:12:09;;;;;;;6.90;1.50;;;;;;;;;;4968501;28;20089;-72
2022/02/26 14:14:36;;;;;;;1.00;1.00;;;;;;;;;;4965068;28;20039;-71
2022/02/26 14:17:06;;;;;;;3.10;1.15;;;;;;;;;;4968216;28;20035;-72
2022/02/26 14:19:32;;;;;;;2.33;1.08;;;;;;;;;;4963447;28;20073;-72
2022/02/26 14:21:58;;;;;;;1.52;1.30;;;;;;;;;;4968857;28;20170;-72
2022/02/26 14:24:25;;;;;;;2.35;1.60;;;;;;;;;;4965257;28;20103;-71